createdAt,value
2023-06-10T00:00:08.408Z,6.20
2023-06-10T00:02:42.419Z,7.15
2023-06-10T00:05:11.479Z,6.35
2023-06-10T00:07:42.571Z,6.53
2023-06-10T00:10:12.424Z,6.22
2023-06-10T00:12:39.958Z,6.55
2023-06-10T00:15:08.453Z,6.60
2023-06-10T00:17:39.920Z,6.22
2023-06-10T00:20:16.947Z,6.78
2023-06-10T00:22:47.020Z,6.55
2023-06-10T00:25:14.456Z,6.32
2023-06-10T00:27:43.942Z,6.22
2023-06-10T00:30:11.938Z,6.32
2023-06-10T00:32:39.241Z,7.47
2023-06-10T00:35:07.949Z,6.22
2023-06-10T00:37:38.442Z,7.10
2023-06-10T00:40:06.259Z,6.03
2023-06-10T00:42:33.665Z,6.53
2023-06-10T00:45:00.988Z,6.45
2023-06-10T00:47:29.511Z,7.03
2023-06-10T00:49:56.939Z,6.90
2023-06-10T00:52:31.415Z,6.60
2023-06-10T00:55:00.399Z,6.70
2023-06-10T00:57:28.252Z,6.55
2023-06-10T00:59:55.609Z,6.40
2023-06-10T01:02:23.173Z,6.57
2023-06-10T01:04:50.711Z,7.03
2023-06-10T01:07:27.270Z,6.50
2023-06-10T01:10:13.527Z,6.70
2023-06-10T01:13:00.419Z,6.47
2023-06-10T01:15:30.665Z,6.78
2023-06-10T01:18:10.625Z,7.03
2023-06-10T01:20:41.347Z,5.88
2023-06-10T01:23:12.524Z,6.75
2023-06-10T01:26:06.955Z,6.40
2023-06-10T01:28:37.229Z,7.13
2023-06-10T01:31:25.033Z,7.22
2023-06-10T01:33:56.804Z,6.80
2023-06-10T01:36:32.351Z,6.82
2023-06-10T01:39:03.054Z,7.20
2023-06-10T01:41:30.745Z,7.22
2023-06-10T01:43:58.157Z,6.95
2023-06-10T01:46:25.407Z,6.65
2023-06-10T01:48:52.652Z,6.88
2023-06-10T01:51:22.366Z,6.60
2023-06-10T01:53:49.663Z,6.93
2023-06-10T01:56:20.138Z,6.63
2023-06-10T01:58:47.952Z,6.68
2023-06-10T02:01:17.986Z,6.68
2023-06-10T02:03:45.388Z,6.55
2023-06-10T02:06:12.569Z,6.55
2023-06-10T02:08:39.816Z,6.63
2023-06-10T02:11:08.365Z,6.53
2023-06-10T02:13:35.989Z,6.22
2023-06-10T02:16:03.288Z,6.80
2023-06-10T02:18:30.553Z,6.53
2023-06-10T02:21:00.391Z,6.55
2023-06-10T02:23:27.499Z,6.50
2023-06-10T02:25:54.809Z,6.55
2023-06-10T02:28:22.248Z,6.30
2023-06-10T02:30:49.850Z,6.10
2023-06-10T02:33:18.660Z,6.32
2023-06-10T02:35:46.223Z,6.05
2023-06-10T02:38:13.779Z,6.18
2023-06-10T02:40:40.944Z,6.03
2023-06-10T02:43:08.518Z,6.05
2023-06-10T02:45:36.847Z,5.65
2023-06-10T02:48:05.273Z,5.68
2023-06-10T02:50:40.737Z,6.68
2023-06-10T02:53:18.858Z,6.68
2023-06-10T02:55:56.496Z,6.30
2023-06-10T02:58:23.934Z,6.00
2023-06-10T03:00:51.558Z,6.63
2023-06-10T03:03:18.826Z,5.93
2023-06-10T03:05:57.665Z,6.50
2023-06-10T03:08:27.886Z,6.05
2023-06-10T03:10:56.322Z,6.43
2023-06-10T03:13:24.867Z,6.97
2023-06-10T03:15:57.789Z,7.40
2023-06-10T03:18:27.722Z,6.50
2023-06-10T03:20:58.660Z,6.20
2023-06-10T03:23:28.329Z,6.75
2023-06-10T03:25:58.928Z,6.35
2023-06-10T03:28:26.494Z,6.15
2023-06-10T03:30:56.507Z,6.63
2023-06-10T03:33:25.844Z,6.22
2023-06-10T03:35:56.463Z,6.85
2023-06-10T03:38:25.431Z,6.63
2023-06-10T03:40:53.453Z,6.20
2023-06-10T03:43:23.367Z,6.30
2023-06-10T03:45:54.671Z,5.90
2023-06-10T03:48:22.364Z,6.70
2023-06-10T03:50:53.247Z,6.38
2023-06-10T03:53:24.004Z,6.65
2023-06-10T03:55:54.436Z,6.13
2023-06-10T03:58:24.535Z,6.30
2023-06-10T04:00:53.756Z,6.28
2023-06-10T04:03:32.842Z,5.63
2023-06-10T04:06:01.186Z,6.18
2023-06-10T04:08:29.233Z,5.70
2023-06-10T04:10:57.170Z,6.05
2023-06-10T04:13:28.721Z,5.75
2023-06-10T04:15:59.213Z,5.70
2023-06-10T04:18:27.115Z,5.70
2023-06-10T04:20:58.191Z,5.82
2023-06-10T04:23:27.874Z,6.32
2023-06-10T04:25:55.401Z,6.10
2023-06-10T04:28:26.199Z,6.55
2023-06-10T04:30:54.048Z,5.90
2023-06-10T04:33:22.279Z,5.95
2023-06-10T04:35:49.650Z,6.22
2023-06-10T04:38:18.258Z,6.45
2023-06-10T04:40:46.145Z,6.18
2023-06-10T04:43:15.566Z,6.28
2023-06-10T04:45:46.826Z,5.82
2023-06-10T04:48:19.227Z,6.18
2023-06-10T04:50:48.743Z,5.25
2023-06-10T04:53:19.395Z,6.13
2023-06-10T04:55:49.199Z,5.72
2023-06-10T04:58:18.793Z,5.68
2023-06-10T05:00:46.231Z,5.68
2023-06-10T05:03:13.625Z,6.53
2023-06-10T05:05:41.134Z,5.88
2023-06-10T05:08:11.159Z,6.20
2023-06-10T05:10:43.456Z,5.72
2023-06-10T05:13:10.823Z,5.70
2023-06-10T05:15:38.405Z,6.25
2023-06-10T05:18:05.990Z,6.07
2023-06-10T05:20:33.247Z,5.28
2023-06-10T05:23:02.684Z,5.53
2023-06-10T05:25:33.938Z,6.00
2023-06-10T05:28:01.147Z,5.55
2023-06-10T05:30:33.200Z,5.20
2023-06-10T05:33:05.101Z,5.88
2023-06-10T05:35:34.652Z,5.22
2023-06-10T05:38:04.290Z,4.97
2023-06-10T05:40:31.616Z,4.97
2023-06-10T05:43:01.379Z,4.78
2023-06-10T05:45:31.208Z,4.55
2023-06-10T05:47:58.500Z,4.70
2023-06-10T05:50:26.086Z,4.75
2023-06-10T05:52:54.823Z,4.63
2023-06-10T05:55:22.525Z,5.53
2023-06-10T05:57:59.708Z,4.63
2023-06-10T06:00:29.385Z,4.57
2023-06-10T06:03:00.083Z,4.75
2023-06-10T06:05:27.535Z,4.68
2023-06-10T06:07:55.428Z,4.70
2023-06-10T06:10:25.146Z,4.45
2023-06-10T06:12:55.851Z,4.70
2023-06-10T06:15:26.047Z,4.25
2023-06-10T06:17:53.797Z,4.35
2023-06-10T06:20:21.768Z,4.30
2023-06-10T06:22:51.415Z,4.40
2023-06-10T06:25:18.832Z,4.68
2023-06-10T06:27:46.470Z,4.85
2023-06-10T06:30:14.429Z,4.85
2023-06-10T06:32:41.937Z,4.60
2023-06-10T06:35:09.867Z,4.82
2023-06-10T06:37:39.903Z,4.80
2023-06-10T06:40:20.517Z,4.55
2023-06-10T06:42:48.026Z,4.50
2023-06-10T06:45:38.414Z,4.47
2023-06-10T06:48:07.005Z,4.53
2023-06-10T06:50:36.734Z,4.30
2023-06-10T06:53:04.659Z,4.40
2023-06-10T06:55:32.247Z,4.38
2023-06-10T06:58:04.891Z,4.47
2023-06-10T07:00:32.975Z,4.43
2023-06-10T07:03:03.331Z,4.28
2023-06-10T07:05:33.005Z,4.68
2023-06-10T07:08:00.423Z,4.68
2023-06-10T07:10:28.106Z,4.32
2023-06-10T07:12:58.060Z,4.38
2023-06-10T07:15:25.581Z,4.35
2023-06-10T07:17:53.522Z,4.53
2023-06-10T07:20:21.062Z,4.40
2023-06-10T07:22:48.484Z,4.40
2023-06-10T07:25:16.803Z,4.55
2023-06-10T07:27:49.008Z,4.60
2023-06-10T07:30:18.849Z,4.80
2023-06-10T07:32:46.352Z,4.30
2023-06-10T07:35:15.034Z,5.00
2023-06-10T07:37:42.446Z,4.57
2023-06-10T07:40:14.474Z,4.30
2023-06-10T07:42:45.507Z,4.25
2023-06-10T07:45:13.029Z,4.53
2023-06-10T07:47:40.479Z,4.70
2023-06-10T07:50:08.343Z,4.60
2023-06-10T07:52:35.564Z,4.30
2023-06-10T07:55:02.880Z,4.35
2023-06-10T07:57:32.729Z,4.85
2023-06-10T08:00:01.298Z,3.88
2023-06-10T08:02:28.929Z,4.95
2023-06-10T08:04:56.393Z,4.72
2023-06-10T08:07:23.916Z,4.30
2023-06-10T08:09:53.369Z,4.30
2023-06-10T08:12:23.282Z,4.07
2023-06-10T08:14:50.608Z,4.30
2023-06-10T08:17:18.024Z,4.60
2023-06-10T08:19:47.862Z,4.28
2023-06-10T08:22:15.877Z,4.00
2023-06-10T08:24:49.113Z,4.38
2023-06-10T08:27:17.108Z,4.18
2023-06-10T08:29:44.829Z,4.30
2023-06-10T08:32:12.300Z,4.55
2023-06-10T08:34:40.291Z,4.60
2023-06-10T08:37:07.940Z,4.05
2023-06-10T08:39:35.159Z,4.05
2023-06-10T08:42:23.317Z,3.97
2023-06-10T08:44:56.064Z,4.50
2023-06-10T08:47:28.225Z,3.85
2023-06-10T08:49:57.837Z,4.43
2023-06-10T08:52:28.692Z,4.38
2023-06-10T08:55:11.702Z,4.18
2023-06-10T08:57:39.625Z,4.75
2023-06-10T09:00:07.941Z,4.00
2023-06-10T09:02:36.573Z,4.28
2023-06-10T09:05:04.270Z,4.20
2023-06-10T09:07:37.304Z,4.07
2023-06-10T09:10:08.532Z,4.25
2023-06-10T09:12:36.782Z,4.18
2023-06-10T09:15:04.344Z,4.22
2023-06-10T09:17:34.392Z,4.70
2023-06-10T09:20:03.839Z,3.95
2023-06-10T09:22:31.090Z,4.35
2023-06-10T09:25:11.958Z,4.20
2023-06-10T09:27:55.310Z,4.20
2023-06-10T09:30:27.537Z,3.83
2023-06-10T09:32:58.819Z,4.45
2023-06-10T09:35:27.836Z,4.72
2023-06-10T09:37:58.381Z,4.78
2023-06-10T09:40:26.377Z,4.32
2023-06-10T09:43:02.251Z,4.68
2023-06-10T09:45:33.513Z,4.35
2023-06-10T09:48:03.192Z,4.50
2023-06-10T09:50:34.354Z,4.50
2023-06-10T09:53:03.634Z,4.45
2023-06-10T09:55:37.433Z,4.75
2023-06-10T09:58:05.515Z,4.47
2023-06-10T10:00:34.002Z,4.28
2023-06-10T10:03:04.762Z,4.28
2023-06-10T10:05:32.263Z,4.57
2023-06-10T10:08:00.957Z,4.18
2023-06-10T10:10:28.277Z,4.30
2023-06-10T10:12:59.078Z,4.53
2023-06-10T10:15:33.051Z,4.50
2023-06-10T10:18:11.921Z,4.13
2023-06-10T10:20:56.201Z,3.80
2023-06-10T10:23:33.001Z,4.00
2023-06-10T10:26:03.371Z,4.40
2023-06-10T10:28:45.854Z,4.57
2023-06-10T10:31:19.981Z,4.67
2023-06-10T10:34:03.848Z,4.38
2023-06-10T10:36:33.950Z,4.18
2023-06-10T10:39:04.251Z,3.95
2023-06-10T10:41:33.712Z,4.63
2023-06-10T10:44:02.216Z,4.13
2023-06-10T10:46:31.429Z,4.25
2023-06-10T10:48:59.800Z,4.10
2023-06-10T10:51:27.353Z,4.43
2023-06-10T10:54:15.120Z,4.40
2023-06-10T10:57:27.992Z,4.40
2023-06-10T10:59:57.164Z,4.28
2023-06-10T11:02:38.257Z,4.20
2023-06-10T11:05:07.260Z,4.40
2023-06-10T11:07:37.480Z,4.40
2023-06-10T11:10:12.522Z,4.60
2023-06-10T11:12:54.922Z,4.60
2023-06-10T11:15:27.245Z,4.90
2023-06-10T11:18:26.042Z,4.83
2023-06-10T11:21:05.741Z,4.50
2023-06-10T11:23:35.833Z,4.13
2023-06-10T11:26:15.441Z,4.45
2023-06-10T11:29:03.555Z,4.78
2023-06-10T11:31:53.087Z,4.72
2023-06-10T11:34:24.538Z,4.32
2023-06-10T11:36:52.663Z,4.65
2023-06-10T11:39:21.489Z,4.32
2023-06-10T11:41:52.741Z,4.20
2023-06-10T11:44:20.482Z,4.20
2023-06-10T11:46:51.019Z,4.38
2023-06-10T11:49:18.755Z,4.57
2023-06-10T11:51:51.008Z,4.78
2023-06-10T11:54:18.808Z,4.90
2023-06-10T11:56:49.886Z,4.22
2023-06-10T11:59:17.176Z,4.70
2023-06-10T12:01:47.539Z,5.00
2023-06-10T12:04:19.619Z,4.38
2023-06-10T12:06:51.603Z,4.00
2023-06-10T12:09:27.351Z,3.83
2023-06-10T12:12:07.869Z,4.28
2023-06-10T12:15:00.252Z,4.53
2023-06-10T12:17:35.106Z,4.35
2023-06-10T12:20:12.983Z,4.60
2023-06-10T12:22:46.857Z,4.45
2023-06-10T12:25:16.656Z,4.50
2023-06-10T12:28:05.007Z,4.57
2023-06-10T12:30:33.265Z,4.25
2023-06-10T12:33:04.010Z,4.40
2023-06-10T12:35:34.062Z,4.45
2023-06-10T12:38:07.958Z,4.80
2023-06-10T12:40:39.043Z,4.43
2023-06-10T12:43:06.621Z,4.50
2023-06-10T12:45:38.066Z,4.32
2023-06-10T12:48:18.346Z,4.25
2023-06-10T12:50:48.015Z,4.63
2023-06-10T12:53:15.845Z,4.55
2023-06-10T12:55:46.188Z,4.10
2023-06-10T12:58:14.319Z,4.60
2023-06-10T13:00:45.433Z,4.10
2023-06-10T13:03:12.953Z,4.70
2023-06-10T13:05:40.400Z,4.35
2023-06-10T13:08:11.039Z,4.20
2023-06-10T13:10:39.528Z,4.55
2023-06-10T13:13:10.969Z,4.05
2023-06-10T13:15:43.307Z,4.30
2023-06-10T13:18:14.078Z,4.05
2023-06-10T13:20:41.497Z,3.80
2023-06-10T13:23:08.680Z,4.75
2023-06-10T13:25:36.038Z,4.32
2023-06-10T13:28:03.739Z,3.97
2023-06-10T13:30:33.294Z,4.45
2023-06-10T13:33:01.696Z,4.00
2023-06-10T13:35:29.057Z,4.22
2023-06-10T13:37:56.319Z,3.83
2023-06-10T13:40:23.509Z,4.03
2023-06-10T13:42:52.015Z,4.30
2023-06-10T13:45:20.725Z,4.05
2023-06-10T13:47:47.936Z,4.22
2023-06-10T13:50:20.418Z,4.13
2023-06-10T13:52:47.789Z,3.67
2023-06-10T13:55:15.045Z,4.13
2023-06-10T13:57:42.658Z,4.38
2023-06-10T14:00:11.450Z,4.18
2023-06-10T14:02:39.995Z,4.10
2023-06-10T14:05:11.012Z,4.13
2023-06-10T14:07:38.626Z,4.20
2023-06-10T14:10:06.557Z,3.85
2023-06-10T14:12:33.717Z,4.47
2023-06-10T14:15:01.176Z,4.20
2023-06-10T14:17:31.033Z,3.60
2023-06-10T14:20:00.760Z,3.63
2023-06-10T14:22:30.102Z,4.25
2023-06-10T14:24:57.242Z,4.03
2023-06-10T14:27:43.192Z,4.30
2023-06-10T14:30:34.691Z,3.97
2023-06-10T14:33:08.903Z,3.80
2023-06-10T14:35:36.364Z,4.53
2023-06-10T14:38:05.885Z,4.53
2023-06-10T14:40:34.976Z,4.47
2023-06-10T14:43:05.096Z,4.45
2023-06-10T14:45:36.469Z,4.75
2023-06-10T14:48:05.355Z,4.53
2023-06-10T14:50:36.008Z,4.30
2023-06-10T14:53:04.006Z,4.22
2023-06-10T14:55:31.222Z,4.20
2023-06-10T14:57:59.130Z,4.32
2023-06-10T15:00:27.140Z,4.40
2023-06-10T15:02:56.817Z,3.88
2023-06-10T15:05:29.317Z,4.18
2023-06-10T15:08:01.696Z,4.18
2023-06-10T15:10:29.096Z,4.30
2023-06-10T15:12:59.484Z,4.25
2023-06-10T15:15:26.936Z,3.85
2023-06-10T15:17:55.046Z,4.32
2023-06-10T15:20:22.451Z,4.75
2023-06-10T15:22:49.785Z,4.88
2023-06-10T15:25:29.879Z,4.80
2023-06-10T15:27:58.597Z,5.32
2023-06-10T15:30:26.072Z,5.55
2023-06-10T15:32:53.761Z,5.20
2023-06-10T15:35:22.845Z,5.80
2023-06-10T15:37:52.420Z,5.88
2023-06-10T15:40:21.131Z,6.18
2023-06-10T15:42:48.759Z,5.93
2023-06-10T15:45:16.006Z,5.50
2023-06-10T15:47:43.693Z,6.05
2023-06-10T15:50:13.632Z,6.25
2023-06-10T15:52:43.584Z,6.68
2023-06-10T15:55:13.377Z,6.80
2023-06-10T15:57:40.893Z,6.32
2023-06-10T16:00:09.052Z,7.22
2023-06-10T16:02:37.516Z,7.03
2023-06-10T16:05:06.126Z,6.97
2023-06-10T16:07:36.096Z,6.18
2023-06-10T16:10:03.505Z,6.95
2023-06-10T16:12:31.408Z,6.68
2023-06-10T16:14:58.745Z,5.95
2023-06-10T16:17:28.837Z,6.50
2023-06-10T16:19:56.355Z,5.97
2023-06-10T16:22:23.612Z,6.80
2023-06-10T16:24:51.021Z,6.40
2023-06-10T16:27:19.096Z,6.38
2023-06-10T16:29:46.334Z,6.75
2023-06-10T16:32:16.915Z,7.03
2023-06-10T16:34:44.327Z,6.72
2023-06-10T16:37:14.253Z,5.95
2023-06-10T16:39:43.694Z,6.03
2023-06-10T16:42:11.591Z,7.38
2023-06-10T16:44:39.015Z,7.65
2023-06-10T16:47:06.634Z,8.27
2023-06-10T16:49:35.258Z,8.52
2023-06-10T16:52:02.593Z,9.43
2023-06-10T16:54:30.060Z,9.35
2023-06-10T16:56:58.561Z,8.50
2023-06-10T16:59:30.595Z,7.35
2023-06-10T17:01:58.765Z,7.55
2023-06-10T17:04:30.123Z,7.72
2023-06-10T17:06:57.387Z,8.02
2023-06-10T17:09:27.225Z,7.80
2023-06-10T17:11:54.747Z,6.65
2023-06-10T17:14:24.669Z,6.85
2023-06-10T17:16:52.073Z,6.40
2023-06-10T17:19:22.051Z,6.40
2023-06-10T17:21:52.030Z,7.00
2023-06-10T17:24:19.393Z,6.35
2023-06-10T17:26:47.892Z,6.50
2023-06-10T17:29:15.584Z,6.50
2023-06-10T17:32:10.665Z,6.22
2023-06-10T17:35:08.418Z,5.57
2023-06-10T17:37:47.261Z,5.35
2023-06-10T17:40:14.524Z,5.65
2023-06-10T17:42:41.866Z,6.10
2023-06-10T17:45:10.028Z,5.32
2023-06-10T17:47:37.490Z,5.32
2023-06-10T17:50:05.542Z,5.65
2023-06-10T17:52:32.753Z,5.28
2023-06-10T17:55:03.609Z,5.25
2023-06-10T17:57:32.523Z,5.30
2023-06-10T17:59:59.941Z,6.10
2023-06-10T18:02:27.274Z,4.95
2023-06-10T18:04:56.063Z,4.90
2023-06-10T18:07:23.246Z,5.15
2023-06-10T18:09:50.611Z,4.45
2023-06-10T18:12:23.828Z,5.25
2023-06-10T18:14:51.177Z,4.80
2023-06-10T18:17:18.454Z,4.72
2023-06-10T18:19:45.720Z,4.72
2023-06-10T18:22:13.114Z,4.63
2023-06-10T18:24:42.708Z,4.70
2023-06-10T18:27:16.745Z,4.88
2023-06-10T18:29:44.437Z,5.03
2023-06-10T18:32:14.166Z,4.70
2023-06-10T18:34:41.500Z,4.35
2023-06-10T18:37:09.102Z,5.10
2023-06-10T18:39:36.492Z,5.05
2023-06-10T18:42:03.922Z,4.63
2023-06-10T18:44:33.765Z,4.63
2023-06-10T18:47:03.510Z,4.40
2023-06-10T18:49:30.873Z,4.18
2023-06-10T18:51:58.255Z,4.88
2023-06-10T18:54:40.237Z,4.35
2023-06-10T18:57:24.114Z,4.72
2023-06-10T19:00:13.517Z,4.80
2023-06-10T19:02:45.324Z,4.45
2023-06-10T19:05:13.991Z,4.90
2023-06-10T19:07:41.282Z,4.97
2023-06-10T19:10:09.017Z,5.15
2023-06-10T19:12:36.245Z,5.18
2023-06-10T19:15:04.511Z,4.97
2023-06-10T19:17:32.123Z,5.13
2023-06-10T19:19:59.572Z,4.97
2023-06-10T19:22:26.926Z,5.03
2023-06-10T19:25:25.003Z,4.88
2023-06-10T19:27:52.123Z,4.57
2023-06-10T19:30:19.556Z,4.47
2023-06-10T19:32:46.871Z,4.75
2023-06-10T19:35:16.511Z,4.82
2023-06-10T19:37:43.623Z,4.82
2023-06-10T19:40:11.529Z,4.28
2023-06-10T19:42:41.066Z,5.15
2023-06-10T19:45:11.862Z,5.03
2023-06-10T19:47:41.626Z,3.97
2023-06-10T19:50:09.351Z,4.60
2023-06-10T19:52:36.699Z,4.65
2023-06-10T19:55:06.959Z,4.35
2023-06-10T19:57:34.327Z,4.75
2023-06-10T20:00:06.419Z,4.30
2023-06-10T20:02:40.125Z,4.50
2023-06-10T20:05:08.068Z,4.47
2023-06-10T20:07:35.517Z,4.88
2023-06-10T20:10:02.938Z,4.47
2023-06-10T20:12:32.509Z,4.22
2023-06-10T20:14:59.705Z,4.43
2023-06-10T20:17:27.731Z,5.00
2023-06-10T20:19:57.970Z,4.03
2023-06-10T20:22:27.718Z,4.18
2023-06-10T20:24:57.849Z,4.50
2023-06-10T20:27:25.104Z,4.47
2023-06-10T20:29:54.265Z,4.53
2023-06-10T20:32:22.939Z,4.18
2023-06-10T20:34:50.529Z,4.40
2023-06-10T20:37:17.650Z,4.60
2023-06-10T20:39:45.124Z,4.35
2023-06-10T20:42:14.212Z,4.35
2023-06-10T20:44:43.662Z,4.50
2023-06-10T20:47:11.266Z,4.65
2023-06-10T20:49:38.477Z,5.05
2023-06-10T20:52:06.089Z,4.22
2023-06-10T20:54:33.322Z,4.15
2023-06-10T20:57:00.659Z,4.20
2023-06-10T20:59:29.952Z,3.90
2023-06-10T21:01:57.417Z,4.10
2023-06-10T21:04:26.796Z,3.97
2023-06-10T21:06:56.443Z,4.05
2023-06-10T21:09:23.842Z,4.20
2023-06-10T21:11:53.306Z,4.10
2023-06-10T21:14:20.540Z,4.15
2023-06-10T21:16:52.440Z,4.28
2023-06-10T21:19:19.602Z,4.35
2023-06-10T21:21:46.973Z,4.25
2023-06-10T21:24:19.460Z,4.13
2023-06-10T21:26:46.858Z,4.25
2023-06-10T21:29:14.433Z,4.55
2023-06-10T21:31:41.877Z,4.07
2023-06-10T21:34:09.142Z,4.63
2023-06-10T21:36:38.989Z,4.30
2023-06-10T21:39:06.983Z,4.18
2023-06-10T21:41:34.144Z,4.18
2023-06-10T21:44:03.895Z,4.00
2023-06-10T21:46:34.413Z,4.63
2023-06-10T21:49:04.010Z,4.13
2023-06-10T21:51:31.445Z,3.97
2023-06-10T21:54:01.026Z,3.90
2023-06-10T21:56:33.094Z,4.07
2023-06-10T21:59:02.798Z,4.18
2023-06-10T22:01:36.726Z,4.10
2023-06-10T22:04:04.384Z,4.10
2023-06-10T22:06:34.746Z,4.35
2023-06-10T22:09:02.310Z,4.45
2023-06-10T22:11:29.564Z,3.80
2023-06-10T22:13:57.506Z,4.00
2023-06-10T22:16:26.973Z,4.00
2023-06-10T22:18:56.519Z,4.10
2023-06-10T22:21:30.006Z,3.92
2023-06-10T22:23:57.514Z,4.10
2023-06-10T22:26:33.969Z,4.45
2023-06-10T22:29:13.475Z,4.00
2023-06-10T22:31:40.865Z,3.90
2023-06-10T22:34:10.825Z,4.35
2023-06-10T22:36:41.131Z,3.87
2023-06-10T22:39:12.942Z,3.72
2023-06-10T22:41:43.316Z,4.40
2023-06-10T22:44:11.056Z,4.13
2023-06-10T22:46:42.883Z,4.25
2023-06-10T22:49:12.689Z,4.10
2023-06-10T22:51:41.815Z,4.55
2023-06-10T22:54:09.098Z,4.35
2023-06-10T22:56:36.475Z,4.70
2023-06-10T22:59:03.843Z,4.38
2023-06-10T23:01:33.829Z,4.30
2023-06-10T23:04:01.313Z,4.13
2023-06-10T23:06:28.709Z,4.70
2023-06-10T23:08:58.202Z,4.22
2023-06-10T23:11:28.514Z,4.55
2023-06-10T23:13:56.018Z,4.60
2023-06-10T23:16:23.232Z,4.28
2023-06-10T23:18:51.049Z,4.72
2023-06-10T23:21:21.685Z,4.32
2023-06-10T23:23:52.615Z,4.78
2023-06-10T23:26:23.090Z,4.15
2023-06-10T23:28:50.384Z,4.25
2023-06-10T23:31:20.574Z,4.68
2023-06-10T23:33:49.980Z,4.38
2023-06-10T23:36:20.415Z,4.30
2023-06-10T23:38:47.871Z,4.20
2023-06-10T23:41:15.354Z,5.07
2023-06-10T23:43:44.907Z,4.88
2023-06-10T23:46:12.318Z,4.57
2023-06-10T23:48:42.139Z,4.20
2023-06-10T23:51:09.376Z,4.97
2023-06-10T23:53:36.978Z,4.50
2023-06-10T23:56:04.401Z,4.43
2023-06-10T23:58:31.640Z,5.38
